Time;durP1;ratioP1;P1;durP2;ratioP2;P2;SDS_P1;SDS_P2;PMS_P1;PMS_P2;Temp;Humidity;BMP_temperature;BMP_pressure;BME280_temperature;BME280_humidity;BME280_pressure;Samples;Min_cycle;Max_cycle;Signal;HPM_P1;HPM_P2
2021/09/17 00:01:07;;;;;;;6.93;6.33;;;14.30;99.90;;;;;;4934238;29;20709;-62
2021/09/17 00:03:32;;;;;;;6.30;5.80;;;14.30;99.90;;;;;;4934634;29;20185;-62
2021/09/17 00:05:58;;;;;;;6.97;6.20;;;14.40;99.90;;;;;;4934682;29;20170;-62
2021/09/17 00:08:23;;;;;;;6.37;5.87;;;14.40;99.90;;;;;;4934355;29;20268;-62
2021/09/17 00:10:49;;;;;;;7.40;6.70;;;14.30;99.90;;;;;;4934614;29;20190;-62
2021/09/17 00:13:14;;;;;;;7.20;6.50;;;14.30;99.90;;;;;;4936040;29;20516;-62
2021/09/17 00:15:40;;;;;;;7.83;6.70;;;14.30;99.90;;;;;;4953387;29;20224;-62
2021/09/17 00:18:05;;;;;;;8.07;6.73;;;14.40;99.90;;;;;;4951198;29;20232;-62
2021/09/17 00:20:31;;;;;;;11.40;6.80;;;14.40;99.90;;;;;;4953301;28;20248;-62
2021/09/17 00:22:56;;;;;;;6.50;6.00;;;14.40;99.90;;;;;;4953269;29;20245;-62
2021/09/17 00:25:22;;;;;;;6.77;6.17;;;14.30;99.90;;;;;;4953700;29;20243;-62
2021/09/17 00:27:47;;;;;;;6.40;5.73;;;14.40;99.90;;;;;;4951807;29;20549;-62
2021/09/17 00:30:13;;;;;;;8.43;7.17;;;14.30;99.90;;;;;;4953324;28;20571;-62
2021/09/17 00:32:39;;;;;;;7.33;6.73;;;14.30;99.90;;;;;;4922382;29;20531;-62
2021/09/17 00:35:05;;;;;;;6.53;6.00;;;14.30;99.90;;;;;;4915414;29;20426;-62
2021/09/17 00:37:30;;;;;;;6.57;5.93;;;14.40;99.90;;;;;;4928876;29;20706;-62
2021/09/17 00:39:56;;;;;;;6.77;6.03;;;14.40;99.90;;;;;;4934305;29;20434;-62
2021/09/17 00:42:21;;;;;;;6.07;5.67;;;14.50;99.90;;;;;;4934447;29;20178;-62
2021/09/17 00:44:47;;;;;;;7.00;5.60;;;14.50;99.90;;;;;;4934228;29;20640;-62
2021/09/17 00:47:13;;;;;;;6.73;6.13;;;14.40;99.90;;;;;;4934183;29;20188;-62
2021/09/17 00:49:38;;;;;;;6.70;6.03;;;14.20;99.90;;;;;;4941554;28;20209;-62
2021/09/17 00:52:04;;;;;;;7.93;7.17;;;14.10;99.90;;;;;;4944562;29;20261;-62
2021/09/17 00:54:34;;;;;;;6.23;5.63;;;14.10;99.90;;;;;;4934266;29;20182;-62
2021/09/17 00:57:00;;;;;;;6.90;6.17;;;14.20;99.90;;;;;;4934269;29;20628;-62
2021/09/17 00:59:25;;;;;;;6.47;6.03;;;14.30;99.90;;;;;;4941191;28;20756;-62
2021/09/17 01:01:51;;;;;;;6.90;6.30;;;14.30;99.90;;;;;;4939787;29;20448;-63
2021/09/17 01:04:16;;;;;;;5.70;5.20;;;14.40;99.90;;;;;;4946717;29;20193;-63
2021/09/17 01:06:43;;;;;;;6.40;5.80;;;14.40;99.90;;;;;;4952920;29;20243;-62
2021/09/17 01:09:08;;;;;;;7.00;6.27;;;14.40;99.90;;;;;;4952924;29;20223;-63
2021/09/17 01:11:34;;;;;;;6.70;6.20;;;14.40;99.90;;;;;;4953670;28;20460;-62
2021/09/17 01:14:01;;;;;;;6.67;6.07;;;14.30;99.90;;;;;;4946341;29;20186;-62
2021/09/17 01:16:27;;;;;;;6.93;6.33;;;14.20;99.90;;;;;;4937393;29;20802;-62
2021/09/17 01:18:53;;;;;;;6.20;5.70;;;14.10;99.90;;;;;;4952161;29;20433;-62
2021/09/17 01:21:20;;;;;;;8.03;6.97;;;14.10;99.90;;;;;;4954808;28;20200;-63
2021/09/17 01:23:46;;;;;;;7.07;6.57;;;14.00;99.90;;;;;;4956484;29;20421;-62
2021/09/17 01:26:12;;;;;;;13.53;7.67;;;14.00;99.90;;;;;;4956445;29;20435;-62
2021/09/17 01:28:38;;;;;;;7.03;6.47;;;14.10;99.90;;;;;;4938511;29;20484;-62
2021/09/17 01:31:04;;;;;;;6.00;5.50;;;14.20;99.90;;;;;;4956269;28;20436;-63
2021/09/17 01:33:29;;;;;;;5.70;5.30;;;14.30;99.90;;;;;;4956071;29;20650;-62
2021/09/17 01:36:00;;;;;;;6.10;5.60;;;14.40;99.90;;;;;;4956275;29;20184;-62
2021/09/17 01:38:28;;;;;;;7.00;6.30;;;14.40;99.90;;;;;;4955929;29;20252;-63
2021/09/17 01:40:54;;;;;;;6.30;5.20;;;14.40;99.90;;;;;;4955822;28;20459;-63
2021/09/17 01:43:20;;;;;;;7.63;6.40;;;14.40;99.90;;;;;;4937709;29;20441;-62
2021/09/17 01:45:46;;;;;;;7.40;6.70;;;14.50;99.90;;;;;;4948624;29;20444;-62
2021/09/17 01:48:11;;;;;;;6.83;6.13;;;14.50;99.90;;;;;;4955752;29;20205;-63
2021/09/17 01:50:37;;;;;;;6.07;5.57;;;14.40;99.90;;;;;;4937601;29;20257;-62
2021/09/17 01:53:02;;;;;;;6.03;5.43;;;14.30;99.90;;;;;;4952764;29;20177;-62
2021/09/17 01:55:28;;;;;;;6.63;6.03;;;14.30;99.90;;;;;;4954404;29;20638;-63
2021/09/17 01:57:53;;;;;;;6.87;6.27;;;14.20;99.90;;;;;;4955448;29;20180;-63
2021/09/17 02:00:19;;;;;;;7.47;6.77;;;14.20;99.90;;;;;;4953040;28;20283;-62
2021/09/17 02:02:45;;;;;;;6.97;6.40;;;14.10;99.90;;;;;;4936576;29;20177;-63
2021/09/17 02:05:11;;;;;;;7.10;6.50;;;14.10;99.90;;;;;;4936573;29;20174;-62
2021/09/17 02:07:37;;;;;;;6.60;6.10;;;14.10;99.90;;;;;;4936111;29;20436;-62
2021/09/17 02:10:04;;;;;;;7.37;6.77;;;14.10;99.90;;;;;;4936511;29;20193;-63
2021/09/17 02:12:30;;;;;;;5.80;5.30;;;14.20;99.90;;;;;;4936303;29;20185;-62
2021/09/17 02:14:55;;;;;;;6.97;6.30;;;14.30;99.90;;;;;;4955451;29;20934;-63
2021/09/17 02:17:23;;;;;;;7.50;6.90;;;14.20;99.90;;;;;;4955113;29;20172;-62
2021/09/17 02:19:48;;;;;;;6.83;5.77;;;14.20;99.90;;;;;;4944381;29;20204;-62
2021/09/17 02:22:14;;;;;;;6.47;5.87;;;14.20;99.90;;;;;;4936137;29;20426;-62
2021/09/17 02:24:40;;;;;;;6.30;5.80;;;14.30;99.90;;;;;;4946554;29;20232;-62
2021/09/17 02:27:05;;;;;;;7.00;5.60;;;14.30;99.90;;;;;;4953857;29;20177;-62
2021/09/17 02:29:31;;;;;;;7.73;6.67;;;14.50;99.90;;;;;;4952475;28;20263;-62
2021/09/17 02:31:57;;;;;;;7.47;6.87;;;14.50;99.90;;;;;;4954691;29;20169;-62
2021/09/17 02:34:22;;;;;;;7.43;6.80;;;14.50;99.90;;;;;;4954996;29;20177;-62
2021/09/17 02:36:48;;;;;;;6.27;5.77;;;14.40;99.90;;;;;;4955266;29;20173;-62
2021/09/17 02:39:15;;;;;;;7.00;6.30;;;14.50;99.90;;;;;;4954667;28;20548;-63
2021/09/17 02:41:41;;;;;;;6.63;6.13;;;14.50;99.90;;;;;;4954706;29;20232;-62
2021/09/17 02:44:07;;;;;;;6.23;5.73;;;14.50;99.90;;;;;;4954722;29;20962;-62
2021/09/17 02:46:32;;;;;;;7.10;5.33;;;14.60;99.90;;;;;;4954954;29;20211;-62
2021/09/17 02:48:58;;;;;;;7.13;6.60;;;14.60;99.90;;;;;;4931472;29;20573;-62
2021/09/17 02:51:23;;;;;;;6.73;6.13;;;14.50;99.90;;;;;;4935548;29;20193;-62
2021/09/17 02:53:49;;;;;;;6.93;6.33;;;14.50;99.90;;;;;;4953062;29;20177;-62
2021/09/17 02:56:14;;;;;;;6.70;6.17;;;14.60;99.90;;;;;;4945898;29;20292;-62
2021/09/17 02:58:40;;;;;;;7.43;6.17;;;14.50;99.90;;;;;;4936458;29;20185;-63
2021/09/17 03:01:05;;;;;;;7.10;5.93;;;14.50;99.90;;;;;;4953645;28;20271;-62
2021/09/17 03:03:31;;;;;;;7.50;6.80;;;14.50;99.90;;;;;;4953947;29;20185;-62
2021/09/17 03:05:56;;;;;;;6.93;6.43;;;14.50;99.90;;;;;;4954501;29;20177;-62
2021/09/17 03:08:22;;;;;;;7.53;6.90;;;14.50;99.90;;;;;;4954295;29;20299;-62
2021/09/17 03:10:47;;;;;;;6.30;5.90;;;14.40;99.90;;;;;;4949137;28;20212;-62
2021/09/17 03:13:13;;;;;;;8.70;6.47;;;14.40;99.90;;;;;;4935364;29;20181;-62
2021/09/17 03:15:38;;;;;;;5.80;5.30;;;14.30;99.90;;;;;;4935243;29;20178;-62
2021/09/17 03:18:04;;;;;;;6.17;5.60;;;14.40;99.90;;;;;;4935003;29;20584;-62
2021/09/17 03:20:30;;;;;;;7.10;6.50;;;14.50;99.90;;;;;;4935043;29;20201;-62
2021/09/17 03:22:55;;;;;;;8.03;7.33;;;14.60;99.90;;;;;;4935196;29;20177;-63
2021/09/17 03:25:21;;;;;;;7.00;6.30;;;14.60;99.90;;;;;;4937702;29;20182;-62
2021/09/17 03:27:46;;;;;;;6.90;6.20;;;14.60;99.90;;;;;;4944176;29;20213;-63
2021/09/17 03:30:12;;;;;;;6.13;5.60;;;14.50;99.90;;;;;;4951843;28;20401;-62
2021/09/17 03:32:38;;;;;;;7.50;6.80;;;14.40;99.90;;;;;;4935069;29;20185;-63
2021/09/17 03:35:04;;;;;;;6.47;5.97;;;14.40;99.90;;;;;;4934503;29;20695;-63
2021/09/17 03:37:30;;;;;;;6.70;6.10;;;14.30;99.90;;;;;;4934631;29;20953;-62
2021/09/17 03:39:55;;;;;;;7.30;6.30;;;14.20;99.90;;;;;;4934792;29;20457;-62
2021/09/17 03:42:21;;;;;;;7.57;6.30;;;14.30;99.90;;;;;;4936092;29;20400;-62
2021/09/17 03:44:46;;;;;;;7.43;6.83;;;14.30;99.90;;;;;;4935269;29;20664;-62
2021/09/17 03:47:12;;;;;;;7.40;6.80;;;14.30;99.90;;;;;;4934751;29;20237;-62
2021/09/17 03:49:37;;;;;;;10.20;6.73;;;14.30;99.90;;;;;;4934640;29;20256;-63
2021/09/17 03:52:03;;;;;;;13.60;12.30;;;14.40;99.90;;;;;;4934811;29;20217;-62
2021/09/17 03:54:29;;;;;;;9.93;8.80;;;14.30;99.90;;;;;;4934540;29;20178;-62
2021/09/17 03:56:56;;;;;;;7.07;6.50;;;14.40;99.90;;;;;;4935795;29;20552;-63
2021/09/17 03:59:22;;;;;;;7.23;6.63;;;14.40;99.90;;;;;;4923851;28;20185;-62
2021/09/17 04:01:48;;;;;;;7.40;6.50;;;14.40;99.90;;;;;;4953626;29;20437;-62
2021/09/17 04:04:14;;;;;;;6.93;6.23;;;14.30;99.90;;;;;;4953416;29;20184;-62
2021/09/17 04:06:42;;;;;;;8.20;7.60;;;14.30;99.90;;;;;;4947041;29;20444;-62
2021/09/17 04:09:08;;;;;;;6.67;6.17;;;14.30;99.90;;;;;;4934255;29;20225;-59
2021/09/17 04:11:34;;;;;;;8.50;6.90;;;14.30;99.90;;;;;;4934599;29;20456;-59
2021/09/17 04:13:59;;;;;;;7.03;6.33;;;14.30;99.90;;;;;;4934507;29;20417;-61
2021/09/17 04:16:25;;;;;;;8.10;7.30;;;14.30;99.90;;;;;;4941687;29;20705;-62
2021/09/17 04:18:50;;;;;;;7.40;6.80;;;14.30;99.90;;;;;;4934280;29;20222;-59
2021/09/17 04:21:16;;;;;;;7.80;7.10;;;14.30;99.90;;;;;;4934431;29;20201;-61
2021/09/17 04:23:41;;;;;;;7.43;6.73;;;14.40;99.90;;;;;;4934403;29;20189;-62
2021/09/17 04:26:07;;;;;;;8.70;6.33;;;14.50;99.90;;;;;;4934459;29;20185;-62
2021/09/17 04:28:32;;;;;;;6.17;5.67;;;14.40;99.90;;;;;;4941851;29;20227;-62
2021/09/17 04:30:58;;;;;;;7.77;7.17;;;14.30;99.90;;;;;;4935365;28;20547;-62
2021/09/17 04:33:23;;;;;;;7.53;6.93;;;14.30;99.90;;;;;;4953248;29;20673;-62
2021/09/17 04:35:49;;;;;;;7.10;6.40;;;14.30;99.90;;;;;;4953261;29;20264;-60
2021/09/17 04:38:14;;;;;;;8.60;8.00;;;14.30;99.90;;;;;;4936659;29;20655;-62
2021/09/17 04:40:41;;;;;;;7.87;7.17;;;14.30;99.90;;;;;;4934319;29;20476;-59
2021/09/17 04:43:08;;;;;;;8.27;7.47;;;14.40;99.90;;;;;;4934382;29;20224;-61
2021/09/17 04:45:33;;;;;;;7.77;7.07;;;14.40;99.90;;;;;;4934314;29;20516;-62
2021/09/17 04:48:05;;;;;;;7.70;7.03;;;14.40;99.90;;;;;;4950783;29;20973;-61
2021/09/17 04:50:30;;;;;;;7.70;7.10;;;14.30;99.90;;;;;;4941863;29;20211;-61
2021/09/17 04:52:56;;;;;;;8.60;7.90;;;14.20;99.90;;;;;;4945424;29;20451;-61
2021/09/17 04:55:21;;;;;;;10.00;9.20;;;14.20;99.90;;;;;;4941122;29;20181;-61
2021/09/17 04:57:47;;;;;;;8.90;8.10;;;14.10;99.90;;;;;;4937681;29;20178;-61
2021/09/17 05:00:13;;;;;;;9.13;8.13;;;14.20;99.90;;;;;;4937263;29;20217;-62
2021/09/17 05:02:39;;;;;;;8.23;7.53;;;14.20;99.90;;;;;;4937640;29;20476;-62
2021/09/17 05:05:04;;;;;;;9.33;8.37;;;14.10;99.90;;;;;;4937514;29;20182;-60
2021/09/17 05:07:33;;;;;;;7.10;6.60;;;14.10;99.90;;;;;;4937189;29;20181;-62
2021/09/17 05:09:59;;;;;;;7.80;7.27;;;14.20;99.90;;;;;;4937555;29;20468;-61
2021/09/17 05:12:24;;;;;;;8.07;7.37;;;14.20;99.90;;;;;;4937609;29;20422;-62
2021/09/17 05:14:50;;;;;;;7.50;6.80;;;14.30;99.90;;;;;;4940788;29;20193;-61
2021/09/17 05:17:15;;;;;;;8.37;7.57;;;14.30;99.90;;;;;;4937050;29;20267;-62
2021/09/17 05:19:41;;;;;;;11.23;8.07;;;14.30;99.90;;;;;;4937105;29;20237;-62
2021/09/17 05:22:06;;;;;;;11.20;8.67;;;14.20;99.90;;;;;;4937273;29;20173;-62
2021/09/17 05:24:32;;;;;;;8.73;7.93;;;14.10;99.90;;;;;;4940784;29;20628;-60
2021/09/17 05:26:58;;;;;;;11.60;9.33;;;14.10;99.90;;;;;;4937143;29;20185;-61
2021/09/17 05:29:23;;;;;;;9.03;8.23;;;14.10;99.90;;;;;;4935559;29;20702;-60
2021/09/17 05:31:49;;;;;;;8.57;7.87;;;14.10;99.90;;;;;;4948702;29;20232;-61
2021/09/17 05:34:14;;;;;;;7.97;7.23;;;14.00;99.90;;;;;;4954449;29;20205;-62
2021/09/17 05:36:40;;;;;;;8.73;7.80;;;14.00;99.90;;;;;;4954375;29;20185;-63
2021/09/17 05:39:05;;;;;;;10.23;7.10;;;14.00;99.90;;;;;;4956009;29;20172;-62
2021/09/17 05:41:31;;;;;;;8.37;7.67;;;13.90;99.90;;;;;;4950263;28;20201;-62
2021/09/17 05:43:56;;;;;;;8.13;7.43;;;14.00;99.90;;;;;;4936926;29;20181;-62
2021/09/17 05:46:22;;;;;;;10.13;9.23;;;14.00;99.90;;;;;;4946215;29;20187;-63
2021/09/17 05:48:47;;;;;;;8.70;7.90;;;13.90;99.90;;;;;;4936416;29;20690;-62
2021/09/17 05:51:13;;;;;;;9.40;8.50;;;13.90;99.90;;;;;;4936462;29;20268;-62
2021/09/17 05:53:38;;;;;;;10.83;8.30;;;14.00;99.90;;;;;;4936757;29;20579;-61
2021/09/17 05:56:04;;;;;;;8.03;7.43;;;13.90;99.90;;;;;;4936747;29;20178;-62
2021/09/17 05:58:31;;;;;;;8.60;7.77;;;13.90;99.90;;;;;;4936042;29;20216;-63
2021/09/17 06:01:00;;;;;;;9.40;8.60;;;14.00;99.90;;;;;;4936468;29;20211;-62
2021/09/17 06:03:26;;;;;;;8.90;8.10;;;14.10;99.90;;;;;;4936583;29;20426;-63
2021/09/17 06:05:52;;;;;;;8.97;8.07;;;14.20;99.90;;;;;;4936488;29;20440;-62
2021/09/17 06:08:18;;;;;;;8.57;7.87;;;14.30;99.90;;;;;;4936211;29;20580;-62
2021/09/17 06:10:43;;;;;;;9.00;8.40;;;14.30;99.90;;;;;;4936476;29;20565;-62
2021/09/17 06:13:09;;;;;;;9.27;8.13;;;14.40;99.90;;;;;;4936451;29;20173;-62
2021/09/17 06:15:34;;;;;;;8.80;8.10;;;14.30;99.90;;;;;;4936336;29;20170;-63
2021/09/17 06:18:00;;;;;;;8.70;7.90;;;14.50;99.90;;;;;;4936121;29;20182;-63
2021/09/17 06:20:25;;;;;;;9.10;8.40;;;14.50;99.90;;;;;;4935914;29;20229;-63
2021/09/17 06:22:53;;;;;;;9.10;8.03;;;14.60;99.90;;;;;;4935800;29;20931;-63
2021/09/17 06:25:21;;;;;;;9.43;8.40;;;14.60;99.90;;;;;;4935934;29;20526;-63
2021/09/17 06:27:48;;;;;;;8.60;7.87;;;14.60;99.90;;;;;;4935910;29;20452;-63
2021/09/17 06:30:15;;;;;;;10.93;8.63;;;14.70;99.90;;;;;;4936102;29;20453;-63
2021/09/17 06:32:40;;;;;;;13.20;9.63;;;14.80;99.90;;;;;;4931074;29;20512;-63
2021/09/17 06:35:06;;;;;;;9.33;8.40;;;14.90;99.90;;;;;;4908990;29;20456;-63
2021/09/17 06:37:32;;;;;;;9.80;9.10;;;15.00;99.90;;;;;;4924037;29;20174;-63
2021/09/17 06:39:58;;;;;;;8.60;7.80;;;15.10;99.90;;;;;;4936025;29;20449;-63
2021/09/17 06:42:24;;;;;;;9.43;8.63;;;15.30;99.90;;;;;;4936051;29;20421;-62
2021/09/17 06:44:49;;;;;;;8.80;7.87;;;15.40;99.90;;;;;;4932391;29;20593;-61
2021/09/17 06:47:15;;;;;;;11.07;8.57;;;15.30;99.90;;;;;;4935622;29;20240;-63
2021/09/17 06:49:40;;;;;;;9.80;8.13;;;15.40;99.90;;;;;;4935563;29;20213;-63
2021/09/17 06:52:06;;;;;;;10.20;9.13;;;15.40;99.90;;;;;;4935827;29;20173;-62
2021/09/17 06:54:32;;;;;;;12.07;8.80;;;15.50;99.90;;;;;;4932422;29;20181;-62
2021/09/17 06:56:57;;;;;;;9.53;8.73;;;15.60;99.90;;;;;;4935732;29;20927;-63
2021/09/17 06:59:23;;;;;;;12.10;9.43;;;15.70;99.90;;;;;;4935125;29;20188;-62
2021/09/17 07:01:49;;;;;;;9.60;8.57;;;15.70;99.90;;;;;;4935650;29;20170;-63
2021/09/17 07:04:15;;;;;;;15.33;9.93;;;15.80;99.90;;;;;;4932133;29;20181;-63
2021/09/17 07:06:40;;;;;;;11.97;9.23;;;15.90;99.90;;;;;;4935531;29;20431;-63
2021/09/17 07:09:06;;;;;;;18.33;9.13;;;15.90;99.90;;;;;;4934485;29;20212;-63
2021/09/17 07:11:31;;;;;;;15.40;9.37;;;16.10;99.90;;;;;;4935392;29;20193;-62
2021/09/17 07:13:57;;;;;;;15.10;9.07;;;16.10;99.90;;;;;;4931761;29;20181;-63
2021/09/17 07:16:22;;;;;;;9.63;8.10;;;16.20;99.90;;;;;;4935624;29;20292;-63
2021/09/17 07:18:48;;;;;;;18.40;9.17;;;16.40;99.90;;;;;;4935072;29;20169;-63
2021/09/17 07:21:14;;;;;;;11.13;9.73;;;16.50;99.90;;;;;;4935238;29;20240;-63
2021/09/17 07:23:39;;;;;;;15.40;12.17;;;16.70;99.90;;;;;;4931921;29;20588;-62
2021/09/17 07:26:05;;;;;;;14.63;13.07;;;16.70;99.90;;;;;;4935257;29;20229;-63
2021/09/17 07:28:32;;;;;;;12.90;11.90;;;16.80;99.90;;;;;;4934857;29;20221;-62
2021/09/17 07:30:59;;;;;;;10.90;9.80;;;16.90;99.90;;;;;;4935067;29;20189;-63
2021/09/17 07:33:25;;;;;;;12.23;9.87;;;17.00;99.90;;;;;;4931652;29;20428;-63
2021/09/17 07:35:51;;;;;;;11.90;10.80;;;16.90;99.90;;;;;;4933808;29;20934;-63
2021/09/17 07:38:16;;;;;;;11.73;10.73;;;16.70;99.90;;;;;;4917991;29;20189;-62
2021/09/17 07:40:42;;;;;;;11.73;10.57;;;16.70;99.90;;;;;;4935018;29;20206;-63
2021/09/17 07:43:08;;;;;;;11.17;10.27;;;16.60;99.90;;;;;;4931444;29;20252;-63
2021/09/17 07:45:34;;;;;;;12.80;11.57;;;16.60;99.90;;;;;;4934878;29;20229;-63
2021/09/17 07:48:01;;;;;;;10.83;9.93;;;16.80;99.90;;;;;;4934493;29;20279;-63
2021/09/17 07:50:26;;;;;;;11.87;10.70;;;16.80;99.90;;;;;;4934516;29;20981;-63
2021/09/17 07:52:52;;;;;;;11.93;10.93;;;17.00;99.90;;;;;;4933155;29;20481;-63
2021/09/17 07:55:18;;;;;;;17.40;11.50;;;17.00;99.90;;;;;;4933217;29;20512;-63
2021/09/17 07:57:44;;;;;;;12.27;11.17;;;17.20;99.90;;;;;;4934440;29;20276;-63
2021/09/17 08:00:11;;;;;;;12.67;11.40;;;17.10;99.90;;;;;;4934542;29;20634;-62
2021/09/17 08:02:37;;;;;;;12.87;10.93;;;17.20;99.90;;;;;;4934723;29;20421;-63
2021/09/17 08:05:03;;;;;;;13.87;12.60;;;17.40;99.90;;;;;;4931304;29;20788;-63
2021/09/17 08:07:29;;;;;;;13.13;10.87;;;17.50;99.90;;;;;;4934371;29;20477;-62
2021/09/17 08:09:54;;;;;;;11.10;9.87;;;17.40;99.90;;;;;;4934614;29;20703;-63
2021/09/17 08:12:20;;;;;;;10.50;9.60;;;17.50;99.90;;;;;;4934576;29;20177;-64
2021/09/17 08:14:46;;;;;;;11.23;10.07;;;17.70;99.90;;;;;;4931151;29;20264;-63
2021/09/17 08:17:11;;;;;;;9.70;8.80;;;17.80;99.90;;;;;;4934419;29;20170;-62
2021/09/17 08:19:37;;;;;;;10.47;9.50;;;18.00;99.90;;;;;;4934320;29;20209;-63
2021/09/17 08:22:02;;;;;;;10.43;9.53;;;18.20;99.90;;;;;;4937980;29;20181;-63
2021/09/17 08:24:28;;;;;;;10.83;9.93;;;18.20;99.90;;;;;;4934982;29;20241;-63
2021/09/17 08:26:56;;;;;;;10.27;9.47;;;18.40;99.90;;;;;;4938387;29;20181;-63
2021/09/17 08:29:21;;;;;;;11.00;10.10;;;18.60;99.90;;;;;;4937871;29;20251;-63
2021/09/17 08:31:49;;;;;;;12.23;11.23;;;19.00;99.90;;;;;;4938625;29;20449;-63
2021/09/17 08:34:15;;;;;;;12.10;11.00;;;19.20;99.90;;;;;;4934391;29;20204;-63
2021/09/17 08:36:40;;;;;;;12.70;11.37;;;19.10;99.90;;;;;;4937942;29;20457;-63
2021/09/17 08:39:07;;;;;;;10.93;9.93;;;19.10;99.90;;;;;;4937317;29;20194;-63
2021/09/17 08:41:33;;;;;;;11.10;10.20;;;19.30;99.90;;;;;;4938286;29;20210;-64
2021/09/17 08:44:00;;;;;;;13.03;12.03;;;19.50;99.90;;;;;;4934576;29;20767;-63
2021/09/17 08:46:26;;;;;;;12.63;11.53;;;19.50;99.90;;;;;;4938140;29;20425;-64
2021/09/17 08:48:52;;;;;;;11.43;10.43;;;19.50;99.90;;;;;;4937609;29;20878;-64
2021/09/17 08:51:19;;;;;;;12.03;10.93;;;19.50;99.90;;;;;;4937534;29;20212;-63
2021/09/17 08:53:45;;;;;;;12.00;11.10;;;19.70;99.90;;;;;;4937682;29;20919;-64
2021/09/17 08:56:16;;;;;;;10.90;10.07;;;19.60;99.90;;;;;;4937609;29;20429;-64
2021/09/17 08:58:46;;;;;;;12.43;11.33;;;19.40;99.90;;;;;;4936964;29;20581;-64
2021/09/17 09:01:36;;;;;;;12.77;11.57;;;19.20;99.90;;;;;;4937414;29;20473;-64
2021/09/17 09:04:04;;;;;;;13.63;12.30;;;19.50;99.90;;;;;;4937764;29;20429;-63
2021/09/17 09:06:42;;;;;;;12.40;11.40;;;19.50;99.90;;;;;;4937577;29;20483;-63
2021/09/17 09:09:15;;;;;;;12.10;11.10;;;19.60;99.90;;;;;;4937113;29;20516;-63
2021/09/17 09:11:41;;;;;;;12.03;10.97;;;19.50;99.90;;;;;;4937566;29;20470;-63
2021/09/17 09:14:09;;;;;;;12.90;11.70;;;19.40;99.90;;;;;;4937484;29;20453;-63
2021/09/17 09:16:41;;;;;;;13.03;11.83;;;19.10;99.90;;;;;;4937502;29;20650;-63
2021/09/17 09:19:33;;;;;;;12.90;11.70;;;19.30;99.90;;;;;;4937258;29;20472;-64
2021/09/17 09:22:02;;;;;;;11.10;10.20;;;19.80;99.90;;;;;;4937501;29;20809;-64
2021/09/17 09:24:27;;;;;;;12.90;11.80;;;20.20;99.90;;;;;;4937267;29;20425;-63
2021/09/17 09:27:13;;;;;;;11.13;10.13;;;20.50;99.90;;;;;;4937233;29;20437;-63
2021/09/17 09:29:40;;;;;;;11.33;10.30;;;20.70;99.90;;;;;;4937053;29;20220;-63
2021/09/17 09:32:06;;;;;;;11.17;10.17;;;20.70;99.90;;;;;;4936246;29;20449;-63
2021/09/17 09:34:51;;;;;;;11.43;10.43;;;21.00;99.90;;;;;;4937142;29;20452;-63
2021/09/17 09:37:19;;;;;;;12.23;11.03;;;21.20;99.90;;;;;;4936689;29;20229;-63
2021/09/17 09:39:53;;;;;;;10.23;9.40;;;20.90;99.90;;;;;;4937043;29;20445;-63
2021/09/17 09:42:20;;;;;;;10.57;9.67;;;21.10;99.90;;;;;;4936935;29;20428;-62
2021/09/17 09:45:13;;;;;;;8.47;7.87;;;21.50;99.90;;;;;;4936913;29;20429;-63
2021/09/17 09:47:40;;;;;;;9.57;8.67;;;21.70;99.90;;;;;;4936591;29;20825;-63
2021/09/17 09:50:29;;;;;;;11.10;10.10;;;21.70;99.90;;;;;;4936857;29;20461;-63
2021/09/17 09:53:00;;;;;;;9.20;8.50;;;22.20;99.90;;;;;;4936232;29;20465;-63
2021/09/17 09:55:26;;;;;;;8.90;8.20;;;22.60;99.90;;;;;;4936854;29;20441;-63
2021/09/17 09:57:54;;;;;;;8.77;8.13;;;22.60;99.90;;;;;;4936541;29;20426;-63
2021/09/17 10:00:20;;;;;;;8.63;7.60;;;22.60;99.90;;;;;;4936916;29;20224;-63
2021/09/17 10:02:46;;;;;;;7.90;7.30;;;22.50;99.90;;;;;;4936652;29;20508;-63
2021/09/17 10:05:15;;;;;;;7.37;6.67;;;22.30;99.90;;;;;;4936679;29;20508;-63
2021/09/17 10:07:40;;;;;;;8.73;7.30;;;22.40;99.90;;;;;;4936267;29;20186;-63
2021/09/17 10:10:10;;;;;;;8.13;7.40;;;22.20;99.90;;;;;;4936457;29;20544;-63
2021/09/17 10:12:36;;;;;;;7.57;6.97;;;22.10;99.90;;;;;;4936460;29;20565;-63
2021/09/17 10:15:02;;;;;;;6.47;6.07;;;22.00;99.90;;;;;;4936376;29;20805;-63
2021/09/17 10:17:30;;;;;;;12.10;8.67;;;22.10;99.90;;;;;;4936140;29;20426;-63
2021/09/17 10:19:58;;;;;;;9.77;7.50;;;22.00;99.90;;;;;;4936208;29;20453;-63
2021/09/17 10:22:27;;;;;;;6.73;6.13;;;21.90;99.90;;;;;;4936058;29;20430;-63
2021/09/17 10:25:26;;;;;;;8.10;7.40;;;21.90;99.90;;;;;;4936104;29;20488;-63
2021/09/17 10:28:07;;;;;;;7.63;6.97;;;21.90;99.90;;;;;;4924378;29;20433;-63
2021/09/17 10:30:38;;;;;;;7.03;6.43;;;21.70;99.90;;;;;;4936002;29;20492;-63
2021/09/17 10:33:24;;;;;;;7.67;6.90;;;21.80;99.90;;;;;;4936019;29;20440;-63
2021/09/17 10:35:50;;;;;;;6.57;6.07;;;22.20;99.90;;;;;;4936116;29;20429;-63
2021/09/17 10:38:20;;;;;;;7.40;6.70;;;22.30;99.90;;;;;;4933623;29;20791;-66
2021/09/17 10:40:55;;;;;;;7.07;6.47;;;22.40;99.90;;;;;;4935620;29;20671;-63
2021/09/17 10:43:40;;;;;;;6.30;5.90;;;22.40;99.90;;;;;;4935755;29;20948;-63
2021/09/17 10:46:08;;;;;;;11.10;10.30;;;21.80;99.90;;;;;;4935927;29;20455;-63
2021/09/17 10:48:40;;;;;;;9.80;8.93;;;21.50;99.90;;;;;;4935379;29;20543;-61
2021/09/17 10:51:05;;;;;;;6.80;6.20;;;21.60;99.90;;;;;;4935634;29;20873;-63
2021/09/17 10:53:44;;;;;;;5.67;5.27;;;21.80;99.90;;;;;;4935407;29;20453;-63
2021/09/17 10:56:13;;;;;;;5.80;5.30;;;22.10;99.90;;;;;;4935828;29;20166;-63
2021/09/17 10:58:41;;;;;;;6.50;5.13;;;22.10;99.90;;;;;;4935251;29;20441;-63
2021/09/17 11:01:15;;;;;;;5.97;5.57;;;22.10;99.90;;;;;;4935427;29;20502;-63
2021/09/17 11:03:40;;;;;;;4.80;4.50;;;22.20;99.90;;;;;;4935609;29;20424;-63
2021/09/17 11:06:18;;;;;;;5.00;4.60;;;22.00;99.90;;;;;;4935395;29;20433;-62
2021/09/17 11:08:44;;;;;;;5.80;5.30;;;21.60;99.90;;;;;;4935006;29;20252;-63
2021/09/17 11:11:28;;;;;;;5.40;4.90;;;21.60;99.90;;;;;;4935362;29;20433;-63
2021/09/17 11:13:57;;;;;;;6.73;5.33;;;21.60;99.90;;;;;;4935280;29;20181;-62
2021/09/17 11:16:25;;;;;;;5.50;5.07;;;21.40;99.90;;;;;;4935329;29;20967;-60
2021/09/17 11:18:51;;;;;;;6.10;5.70;;;21.30;99.90;;;;;;4935074;29;20926;-63
2021/09/17 11:21:17;;;;;;;5.90;5.40;;;21.10;99.90;;;;;;4935140;29;20444;-63
2021/09/17 11:23:48;;;;;;;4.17;3.87;;;20.90;99.90;;;;;;4934942;29;20418;-63
2021/09/17 11:26:18;;;;;;;6.00;5.50;;;20.90;99.90;;;;;;4935181;29;20429;-63
2021/09/17 11:28:43;;;;;;;5.50;4.37;;;20.80;99.90;;;;;;4934841;29;20453;-62
2021/09/17 11:31:17;;;;;;;4.47;4.07;;;20.80;99.90;;;;;;4935023;29;20441;-62
2021/09/17 11:33:43;;;;;;;4.23;3.83;;;20.60;99.90;;;;;;4935215;29;20176;-62
2021/09/17 11:36:09;;;;;;;3.80;3.43;;;20.70;99.90;;;;;;4934932;29;20995;-62
2021/09/17 11:38:35;;;;;;;3.70;3.40;;;20.60;99.90;;;;;;4934676;29;20429;-62
2021/09/17 11:41:00;;;;;;;4.17;3.80;;;20.50;99.90;;;;;;4934861;29;20453;-62
2021/09/17 11:43:26;;;;;;;4.47;4.17;;;20.70;99.90;;;;;;4933639;29;20193;-62
2021/09/17 11:45:54;;;;;;;3.50;3.30;;;20.80;99.90;;;;;;4935044;29;20178;-62
2021/09/17 11:48:25;;;;;;;3.97;3.67;;;20.70;99.90;;;;;;4934566;29;20194;-62
2021/09/17 11:50:53;;;;;;;4.73;4.33;;;20.80;99.90;;;;;;4934960;29;20452;-63
2021/09/17 11:53:19;;;;;;;4.93;4.53;;;20.90;99.90;;;;;;4934286;29;20827;-64
2021/09/17 11:55:45;;;;;;;5.50;5.00;;;20.90;99.90;;;;;;4934426;29;20422;-62
2021/09/17 11:58:10;;;;;;;5.87;5.33;;;20.80;99.90;;;;;;4934775;29;20181;-62
2021/09/17 12:00:37;;;;;;;5.90;5.40;;;20.80;99.90;;;;;;4934660;29;20220;-63
2021/09/17 12:03:08;;;;;;;4.77;4.40;;;20.90;99.90;;;;;;4934748;29;20185;-63
2021/09/17 12:05:37;;;;;;;5.90;5.40;;;21.00;99.90;;;;;;4929306;29;20433;-63
2021/09/17 12:08:04;;;;;;;6.27;5.70;;;21.10;99.90;;;;;;4930596;29;20480;-64
2021/09/17 12:10:32;;;;;;;9.87;9.10;;;21.10;99.90;;;;;;4931554;29;20849;-64
2021/09/17 12:13:19;;;;;;;9.03;5.87;;;21.50;99.90;;;;;;4931171;29;20432;-63
2021/09/17 12:15:46;;;;;;;5.80;4.83;;;22.00;99.80;;;;;;4931189;29;20440;-63
2021/09/17 12:18:18;;;;;;;6.40;4.60;;;22.30;99.60;;;;;;4928471;29;20429;-63
2021/09/17 12:20:50;;;;;;;3.80;3.50;;;23.20;98.50;;;;;;4931416;29;20441;-63
2021/09/17 12:23:19;;;;;;;4.97;4.40;;;24.00;95.50;;;;;;4931071;29;20598;-63
2021/09/17 12:25:45;;;;;;;4.53;4.20;;;24.60;95.40;;;;;;4931093;29;20436;-63
2021/09/17 12:28:18;;;;;;;7.53;3.43;;;24.60;94.20;;;;;;4931070;29;20452;-63
2021/09/17 12:30:44;;;;;;;4.23;3.93;;;24.40;94.10;;;;;;4931356;29;20449;-63
2021/09/17 12:33:13;;;;;;;4.30;4.00;;;24.20;94.00;;;;;;4931137;29;20425;-63
2021/09/17 12:35:47;;;;;;;4.00;3.70;;;24.80;93.90;;;;;;4931360;29;20930;-63
2021/09/17 12:38:14;;;;;;;3.50;3.30;;;25.00;91.80;;;;;;4930992;29;20432;-63
2021/09/17 12:41:01;;;;;;;3.30;3.10;;;25.50;91.60;;;;;;4931344;29;20441;-63
2021/09/17 12:43:31;;;;;;;3.33;3.03;;;26.00;90.70;;;;;;4931153;29;20464;-63